Time;durP1;ratioP1;P1;durP2;ratioP2;P2;SDS_P1;SDS_P2;PMS_P1;PMS_P2;Temp;Humidity;BMP_temperature;BMP_pressure;BME280_temperature;BME280_humidity;BME280_pressure;Samples;Min_cycle;Max_cycle;Signal;HPM_P1;HPM_P2
2021/05/03 00:00:04;;;;;;;6.25;4.18;;;;;;;6.70;96.83;100742.31;3565212;40;20528;-55
2021/05/03 00:02:31;;;;;;;6.32;4.25;;;;;;;6.74;95.59;100751.81;3564833;40;20089;-55
2021/05/03 00:04:57;;;;;;;4.72;3.80;;;;;;;6.58;95.46;100752.84;3565140;40;20081;-51
2021/05/03 00:07:24;;;;;;;6.15;4.50;;;;;;;6.48;97.01;100751.59;3565046;40;20108;-53
2021/05/03 00:09:50;;;;;;;7.28;4.28;;;;;;;6.71;95.62;100757.66;3565616;40;20060;-53
2021/05/03 00:12:17;;;;;;;6.97;3.95;;;;;;;6.63;95.25;100761.53;3565006;40;20081;-50
2021/05/03 00:14:43;;;;;;;6.70;3.88;;;;;;;6.51;96.34;100756.78;3566029;40;20057;-51
2021/05/03 00:17:10;;;;;;;6.93;3.95;;;;;;;6.63;95.25;100756.47;3564952;40;20077;-54
2021/05/03 00:19:38;;;;;;;5.78;4.28;;;;;;;6.59;95.94;100764.75;3565666;40;20053;-52
2021/05/03 00:22:05;;;;;;;10.07;4.00;;;;;;;6.56;95.14;100759.53;3565434;40;20340;-54
2021/05/03 00:24:31;;;;;;;8.50;4.20;;;;;;;6.46;95.25;100760.81;3565116;40;20065;-53
2021/05/03 00:26:58;;;;;;;9.18;4.32;;;;;;;6.42;94.95;100758.94;3564586;40;20078;-52
2021/05/03 00:29:24;;;;;;;9.35;4.40;;;;;;;6.51;95.39;100761.88;3565222;40;20104;-52
2021/05/03 00:31:51;;;;;;;7.55;4.35;;;;;;;6.45;94.74;100766.72;3565350;40;20343;-54
2021/05/03 00:34:17;;;;;;;7.88;4.15;;;;;;;6.49;94.86;100768.59;3564675;40;20124;-50
2021/05/03 00:36:44;;;;;;;5.50;3.95;;;;;;;6.45;94.32;100766.72;3565321;40;20065;-52
2021/05/03 00:39:10;;;;;;;7.65;3.97;;;;;;;6.41;94.60;100769.91;3564340;40;20041;-49
2021/05/03 00:41:37;;;;;;;4.38;3.58;;;;;;;6.32;96.01;100769.50;3563956;40;20105;-52
2021/05/03 00:44:04;;;;;;;10.15;4.72;;;;;;;6.40;95.85;100769.84;3564886;40;20357;-56
2021/05/03 00:46:31;;;;;;;4.60;4.05;;;;;;;6.55;94.97;100776.47;3565133;40;20065;-53
2021/05/03 00:48:57;;;;;;;9.02;4.70;;;;;;;6.36;94.16;100776.47;3565478;40;20081;-49
2021/05/03 00:51:24;;;;;;;7.05;3.70;;;;;;;6.19;94.53;100770.63;3566162;40;20052;-51
2021/05/03 00:53:51;;;;;;;6.05;4.07;;;;;;;6.11;95.19;100782.16;3566777;40;20053;-52
2021/05/03 00:56:17;;;;;;;6.05;3.70;;;;;;;6.25;95.43;100775.16;3565524;40;20061;-55
2021/05/03 00:58:44;;;;;;;8.27;4.28;;;;;;;6.38;94.28;100778.31;3565523;40;20743;-55
2021/05/03 01:01:10;;;;;;;5.78;3.30;;;;;;;6.38;94.02;100782.53;3564589;40;20084;-55
2021/05/03 01:03:37;;;;;;;6.40;3.85;;;;;;;6.45;93.33;100781.97;3565057;40;20078;-54
2021/05/03 01:06:04;;;;;;;6.53;3.70;;;;;;;6.34;93.98;100786.59;3564833;40;20049;-53
2021/05/03 01:08:30;;;;;;;4.60;3.38;;;;;;;6.29;93.48;100790.63;3564763;40;20346;-55
2021/05/03 01:10:57;;;;;;;6.20;3.60;;;;;;;6.30;93.53;100784.72;3565410;40;20320;-53
2021/05/03 01:13:23;;;;;;;5.60;3.45;;;;;;;6.31;93.51;100793.22;3565659;40;20136;-52
2021/05/03 01:15:50;;;;;;;3.97;3.58;;;;;;;6.25;93.85;100798.03;3565122;40;20129;-53
2021/05/03 01:18:22;;;;;;;6.82;3.30;;;;;;;6.22;94.06;100796.22;3564592;40;20386;-54
2021/05/03 01:20:54;;;;;;;7.13;3.47;;;;;;;6.01;94.46;100796.13;3565085;40;20085;-49
2021/05/03 01:23:20;;;;;;;8.30;4.53;;;;;;;6.07;94.18;100800.63;3562223;40;20089;-55
2021/05/03 01:25:47;;;;;;;7.63;3.47;;;;;;;6.03;94.34;100801.28;3564568;40;20063;-53
2021/05/03 01:28:14;;;;;;;4.50;3.42;;;;;;;5.82;94.08;100799.47;3564502;40;20057;-51
2021/05/03 01:30:43;;;;;;;8.30;4.57;;;;;;;5.73;95.24;100795.59;3565089;40;20050;-52
2021/05/03 01:33:12;;;;;;;6.72;4.10;;;;;;;5.80;95.25;100798.50;3564407;40;20041;-51
2021/05/03 01:35:41;;;;;;;7.45;4.43;;;;;;;5.69;94.28;100801.38;3565624;40;20338;-53
2021/05/03 01:38:08;;;;;;;5.90;4.15;;;;;;;5.74;94.66;100805.84;3563128;40;20060;-52
2021/05/03 01:40:40;;;;;;;8.57;3.60;;;;;;;5.60;94.54;100804.34;3564772;40;20058;-51
2021/05/03 01:43:12;;;;;;;6.35;3.97;;;;;;;5.55;95.49;100806.66;3563549;40;20048;-54
2021/05/03 01:45:39;;;;;;;5.20;3.85;;;;;;;5.67;95.13;100808.91;3564696;40;20057;-54
2021/05/03 01:48:08;;;;;;;9.00;4.25;;;;;;;5.72;95.02;100807.44;3564267;40;20053;-54
2021/05/03 01:50:35;;;;;;;6.65;4.13;;;;;;;5.82;93.97;100807.09;3563843;40;20068;-51
2021/05/03 01:53:02;;;;;;;4.28;3.45;;;;;;;5.88;94.08;100817.53;3566027;40;20128;-51
2021/05/03 01:55:30;;;;;;;7.40;3.92;;;;;;;5.90;93.91;100821.81;3566847;40;20057;-59
2021/05/03 01:57:56;;;;;;;7.85;3.83;;;;;;;5.84;93.17;100819.84;3566329;40;20392;-51
2021/05/03 02:00:23;;;;;;;4.25;3.55;;;;;;;5.85;93.48;100819.91;3565987;40;20089;-53
2021/05/03 02:02:50;;;;;;;6.70;4.22;;;;;;;5.71;93.85;100830.25;3566351;40;20080;-50
2021/05/03 02:05:22;;;;;;;8.75;3.83;;;;;;;5.81;92.69;100823.13;3565799;40;20093;-52
2021/05/03 02:07:56;;;;;;;7.30;4.40;;;;;;;5.70;93.53;100833.59;3566451;40;20426;-51
2021/05/03 02:10:22;;;;;;;7.18;3.72;;;;;;;5.42;94.39;100822.09;3563199;40;20172;-49
2021/05/03 02:12:49;;;;;;;9.32;4.13;;;;;;;5.29;95.04;100829.91;3566410;40;20678;-54
2021/05/03 02:15:15;;;;;;;5.22;4.10;;;;;;;5.37;93.89;100831.16;3565100;40;20086;-52
2021/05/03 02:17:42;;;;;;;4.50;3.55;;;;;;;5.51;93.89;100836.91;3566027;40;20088;-55
2021/05/03 02:20:10;;;;;;;7.88;3.38;;;;;;;5.28;93.55;100834.13;3565637;40;20514;-53
2021/05/03 02:22:36;;;;;;;6.70;3.40;;;;;;;5.27;94.36;100845.09;3565864;40;20454;-52
2021/05/03 02:25:03;;;;;;;5.28;3.67;;;;;;;5.14;94.25;100835.13;3565723;40;20053;-56
2021/05/03 02:27:30;;;;;;;8.93;3.60;;;;;;;5.17;94.50;100845.41;3565875;40;20069;-55
2021/05/03 02:29:57;;;;;;;6.85;3.80;;;;;;;4.78;94.94;100837.53;3566486;40;20064;-56
2021/05/03 02:32:24;;;;;;;6.15;4.00;;;;;;;4.89;94.92;100848.22;3565574;40;20057;-49
2021/05/03 02:34:50;;;;;;;5.38;3.53;;;;;;;4.78;94.80;100842.59;3564661;40;20354;-51
2021/05/03 02:37:17;;;;;;;7.20;3.80;;;;;;;4.75;94.95;100841.56;3565397;40;20509;-56
2021/05/03 02:39:43;;;;;;;6.05;4.50;;;;;;;4.63;95.38;100849.44;3566187;40;20068;-52
2021/05/03 02:42:10;;;;;;;6.97;3.65;;;;;;;4.40;96.29;100847.38;3565543;40;20049;-52
2021/05/03 02:44:39;;;;;;;5.47;3.70;;;;;;;4.50;96.74;100857.19;3566091;40;20097;-51
2021/05/03 02:47:07;;;;;;;9.50;4.38;;;;;;;4.54;96.28;100854.03;3565609;40;20049;-52
2021/05/03 02:49:35;;;;;;;7.25;4.45;;;;;;;4.58;96.08;100861.88;3565683;40;20071;-52
2021/05/03 02:52:03;;;;;;;4.95;3.95;;;;;;;4.54;95.48;100862.50;3565853;40;20077;-50
2021/05/03 02:54:30;;;;;;;11.05;4.20;;;;;;;4.35;96.39;100857.25;3565527;40;20299;-57
2021/05/03 02:56:56;;;;;;;7.07;4.28;;;;;;;4.31;96.62;100866.34;3566670;40;20128;-53
2021/05/03 02:59:23;;;;;;;5.78;3.53;;;;;;;4.27;97.13;100861.91;3565691;40;20069;-54
2021/05/03 03:01:50;;;;;;;7.43;4.25;;;;;;;4.14;97.84;100863.69;3565986;40;22024;-52
2021/05/03 03:04:17;;;;;;;7.10;4.03;;;;;;;4.07;97.43;100863.38;3565143;40;20061;-53
2021/05/03 03:06:44;;;;;;;5.97;3.85;;;;;;;4.12;97.96;100862.75;3565596;40;20085;-50
2021/05/03 03:09:10;;;;;;;12.85;4.60;;;;;;;4.02;97.69;100868.97;3565490;40;20112;-52
2021/05/03 03:11:38;;;;;;;9.50;5.18;;;;;;;4.14;97.75;100871.31;3566677;40;20057;-51
2021/05/03 03:14:04;;;;;;;9.23;4.05;;;;;;;4.12;97.64;100883.03;3565733;40;20077;-49
2021/05/03 03:16:31;;;;;;;7.32;3.78;;;;;;;3.98;98.39;100875.56;3565384;40;20165;-52
2021/05/03 03:18:59;;;;;;;9.25;4.28;;;;;;;3.87;97.82;100880.78;3565017;40;20401;-54
2021/05/03 03:21:26;;;;;;;4.72;3.70;;;;;;;3.87;98.63;100880.78;3565644;40;20046;-53
2021/05/03 03:23:53;;;;;;;14.40;5.07;;;;;;;3.75;99.28;100891.13;3566468;40;20102;-50
2021/05/03 03:26:20;;;;;;;9.32;4.65;;;;;;;3.87;97.96;100890.94;3563264;40;20068;-50
2021/05/03 03:28:46;;;;;;;6.43;4.35;;;;;;;3.88;98.25;100893.53;3565765;40;20446;-49
2021/05/03 03:31:13;;;;;;;9.45;4.57;;;;;;;3.87;98.13;100896.00;3565440;40;20049;-52
2021/05/03 03:33:40;;;;;;;6.03;4.75;;;;;;;3.86;98.76;100899.31;3565348;40;20041;-52
2021/05/03 03:36:07;;;;;;;10.95;4.03;;;;;;;3.94;98.02;100898.97;3564553;40;20046;-52
2021/05/03 03:38:34;;;;;;;8.85;4.40;;;;;;;3.73;98.56;100908.75;3565395;40;20058;-51
2021/05/03 03:41:01;;;;;;;7.47;4.30;;;;;;;3.72;98.96;100907.00;3565815;40;20057;-55
2021/05/03 03:43:27;;;;;;;6.50;4.25;;;;;;;3.78;97.95;100909.00;3565639;40;20050;-54
2021/05/03 03:45:54;;;;;;;7.63;4.70;;;;;;;3.88;98.35;100910.41;3565585;40;20077;-51
2021/05/03 03:48:21;;;;;;;9.50;4.22;;;;;;;3.89;98.10;100910.50;3564501;40;20077;-52
2021/05/03 03:50:47;;;;;;;9.18;4.65;;;;;;;3.76;98.75;100920.72;3566628;40;20105;-55
2021/05/03 03:53:14;;;;;;;5.75;3.63;;;;;;;3.75;99.01;100922.41;3567375;40;20418;-54
2021/05/03 03:55:41;;;;;;;6.95;4.18;;;;;;;3.92;98.08;100923.31;3566609;40;20304;-56
2021/05/03 03:58:07;;;;;;;7.18;3.97;;;;;;;4.21;97.13;100917.34;3563546;40;20050;-57
2021/05/03 04:00:38;;;;;;;8.55;4.03;;;;;;;4.03;96.54;100929.88;3564130;40;20052;-59
2021/05/03 04:03:06;;;;;;;6.28;3.30;;;;;;;4.15;96.38;100927.13;3565030;40;20048;-53
2021/05/03 04:08:22;;;;;;;6.75;3.95;;;;;;;4.06;95.97;100930.03;3565591;40;20057;-56
2021/05/03 04:24:39;;;;;;;6.35;4.10;;;;;;;4.19;96.32;100943.38;3566059;40;20376;-55
2021/05/03 04:27:06;;;;;;;8.60;3.72;;;;;;;4.08;95.75;100948.75;3573872;40;20040;-51
2021/05/03 04:29:33;;;;;;;8.95;3.90;;;;;;;4.27;95.66;100954.81;3565644;40;20065;-49
2021/05/03 04:32:01;;;;;;;9.00;4.63;;;;;;;4.22;95.12;100949.50;3566327;40;20377;-55
2021/05/03 04:34:28;;;;;;;6.38;4.00;;;;;;;4.46;94.38;100954.16;3565277;40;20072;-52
2021/05/03 04:36:55;;;;;;;8.02;3.72;;;;;;;4.52;93.64;100954.50;3565233;40;20151;-51
2021/05/03 04:39:22;;;;;;;5.63;3.75;;;;;;;4.47;94.78;100960.97;3568549;40;20083;-52
2021/05/03 04:41:49;;;;;;;10.32;3.97;;;;;;;4.52;93.47;100964.63;3568831;40;20056;-49
2021/05/03 04:44:16;;;;;;;7.93;4.53;;;;;;;4.47;93.71;100969.47;3563716;40;20135;-49
2021/05/03 04:46:46;;;;;;;5.60;3.45;;;;;;;4.60;93.56;100968.47;3569312;40;20060;-52
2021/05/03 04:49:13;;;;;;;5.85;3.35;;;;;;;4.69;93.98;100978.25;3565020;40;20073;-51
2021/05/03 04:51:43;;;;;;;7.05;3.58;;;;;;;4.66;91.61;100975.53;3563867;40;20787;-55
2021/05/03 04:54:10;;;;;;;4.53;3.53;;;;;;;4.83;92.11;100975.63;3567161;40;20059;-51
2021/05/03 04:56:42;;;;;;;5.50;4.00;;;;;;;4.77;91.24;100979.53;3568295;40;20057;-54
2021/05/03 04:59:11;;;;;;;9.98;4.25;;;;;;;5.04;91.90;100975.03;3565714;40;20141;-51
2021/05/03 05:01:38;;;;;;;5.00;3.58;;;;;;;4.95;91.74;100979.63;3565770;40;20505;-52
2021/05/03 05:04:07;;;;;;;8.90;4.93;;;;;;;5.20;91.18;100982.66;3564075;40;20060;-50
2021/05/03 05:06:36;;;;;;;5.03;3.42;;;;;;;4.75;92.12;100979.41;3564132;40;20065;-53
2021/05/03 05:09:08;;;;;;;6.25;3.42;;;;;;;4.97;90.80;100989.06;3566595;40;20065;-49
2021/05/03 05:11:35;;;;;;;4.60;3.33;;;;;;;4.97;91.65;100983.13;3565958;40;20061;-52
2021/05/03 05:14:02;;;;;;;6.68;3.42;;;;;;;5.00;91.00;100995.97;3565110;40;20085;-49
2021/05/03 05:16:30;;;;;;;8.50;4.07;;;;;;;5.04;91.56;100996.22;3565116;40;20058;-48
2021/05/03 05:18:58;;;;;;;4.30;3.88;;;;;;;5.13;91.09;100998.38;3565327;40;20048;-50
2021/05/03 05:21:26;;;;;;;7.63;4.18;;;;;;;5.25;89.95;100999.00;3564841;40;20462;-55
2021/05/03 05:23:54;;;;;;;6.05;3.70;;;;;;;5.22;88.77;101000.50;3565168;40;20096;-52
2021/05/03 05:26:20;;;;;;;5.68;3.88;;;;;;;5.32;89.23;101000.19;3560770;40;20098;-50
2021/05/03 05:28:47;;;;;;;4.82;3.85;;;;;;;5.29;89.84;100994.94;3561423;40;20086;-48
2021/05/03 05:31:13;;;;;;;5.97;3.92;;;;;;;5.55;88.46;100996.28;3561930;40;20052;-47
2021/05/03 05:33:40;;;;;;;6.03;3.75;;;;;;;5.53;88.79;100998.72;3563111;40;20060;-50
2021/05/03 05:36:12;;;;;;;8.63;4.32;;;;;;;5.52;87.68;101002.06;3563269;40;20143;-53
2021/05/03 05:38:41;;;;;;;8.43;3.88;;;;;;;5.67;87.38;101007.06;3565945;40;20299;-50
2021/05/03 05:41:10;;;;;;;9.20;3.97;;;;;;;5.78;88.03;101003.41;3564486;40;20049;-56
2021/05/03 05:43:36;;;;;;;6.97;3.47;;;;;;;5.78;87.84;101007.59;3564961;40;20049;-53
2021/05/03 05:46:03;;;;;;;7.45;4.20;;;;;;;5.74;87.69;101015.88;3563863;40;20111;-58
2021/05/03 05:48:29;;;;;;;8.63;4.30;;;;;;;5.84;86.33;101018.06;3565811;40;20346;-59
2021/05/03 05:50:56;;;;;;;7.68;4.20;;;;;;;5.98;86.88;101018.78;3564722;40;20170;-56
2021/05/03 05:53:23;;;;;;;6.07;3.60;;;;;;;6.24;85.22;101018.41;3562144;40;20486;-51
2021/05/03 05:55:49;;;;;;;6.85;4.70;;;;;;;6.21;84.42;101013.16;3564880;40;20081;-55
2021/05/03 05:58:18;;;;;;;6.10;4.10;;;;;;;6.02;84.44;101023.22;3561303;40;20065;-59
2021/05/03 06:00:46;;;;;;;7.80;4.13;;;;;;;6.20;84.87;101023.25;3563721;40;20061;-57
2021/05/03 06:03:13;;;;;;;7.72;3.88;;;;;;;5.99;83.93;101023.06;3561968;40;20045;-59
2021/05/03 06:05:47;;;;;;;7.70;3.65;;;;;;;5.87;85.84;101019.09;3560367;40;20060;-58
2021/05/03 06:08:17;;;;;;;8.18;3.92;;;;;;;6.05;86.21;101033.53;3558891;40;20288;-61
2021/05/03 06:10:44;;;;;;;5.25;3.63;;;;;;;6.17;85.86;101026.50;3559924;40;20042;-56
2021/05/03 06:13:14;;;;;;;7.25;3.40;;;;;;;6.03;83.44;101032.59;3558699;40;20088;-56
2021/05/03 06:15:40;;;;;;;8.20;4.40;;;;;;;5.82;85.55;101038.34;3562040;40;20054;-58
2021/05/03 06:18:08;;;;;;;5.55;4.43;;;;;;;5.80;84.41;101032.28;3561373;40;20057;-56
2021/05/03 06:20:35;;;;;;;4.53;3.58;;;;;;;6.03;83.81;101030.91;3559522;40;20522;-54
2021/05/03 06:23:05;;;;;;;6.90;3.53;;;;;;;6.27;85.49;101026.16;3560748;40;20057;-65
2021/05/03 06:25:32;;;;;;;8.63;4.55;;;;;;;6.46;83.50;101024.50;3561795;40;20057;-59
2021/05/03 06:28:00;;;;;;;6.38;3.58;;;;;;;6.66;83.95;101026.31;3562230;40;20370;-55
2021/05/03 06:30:27;;;;;;;5.22;3.65;;;;;;;6.74;83.89;101027.53;3559159;40;20468;-58
2021/05/03 06:32:56;;;;;;;6.38;3.42;;;;;;;7.33;81.74;101029.34;3560305;40;20076;-57
2021/05/03 06:35:26;;;;;;;7.85;4.90;;;;;;;7.28;80.75;101038.47;3560544;40;20127;-59
2021/05/03 06:37:53;;;;;;;6.35;3.67;;;;;;;7.33;80.07;101037.00;3562629;40;20407;-55
2021/05/03 06:40:21;;;;;;;4.47;3.42;;;;;;;7.53;79.33;101037.88;3565367;40;20061;-54
2021/05/03 06:42:49;;;;;;;4.88;3.08;;;;;;;7.47;76.68;101036.75;3566576;40;20065;-57
2021/05/03 06:45:18;;;;;;;6.00;2.85;;;;;;;7.47;77.07;101041.84;3564098;40;20053;-55
2021/05/03 06:47:49;;;;;;;4.95;3.33;;;;;;;7.47;78.64;101045.25;3564719;40;20273;-54
2021/05/03 06:50:18;;;;;;;3.58;2.83;;;;;;;7.66;76.88;101040.16;3564536;40;20049;-54
2021/05/03 06:52:46;;;;;;;4.97;3.03;;;;;;;7.85;75.31;101040.94;3566286;40;20062;-59
2021/05/03 06:55:15;;;;;;;8.70;3.08;;;;;;;8.07;75.71;101041.03;3568164;40;20050;-58
2021/05/03 06:57:42;;;;;;;4.82;2.47;;;;;;;8.09;74.72;101041.97;3563005;40;20049;-58
2021/05/03 07:00:13;;;;;;;8.82;2.70;;;;;;;8.40;74.43;101049.19;3562740;40;20085;-61
2021/05/03 07:02:41;;;;;;;3.72;2.40;;;;;;;8.26;72.80;101042.63;3563684;40;20046;-53
2021/05/03 07:05:09;;;;;;;4.18;2.65;;;;;;;8.24;72.24;101039.16;3566655;40;20060;-56
2021/05/03 07:07:36;;;;;;;4.47;2.40;;;;;;;8.13;72.94;101041.28;3566319;40;20069;-57
2021/05/03 07:10:04;;;;;;;4.00;2.10;;;;;;;8.29;72.13;101039.34;3566076;40;20394;-55
2021/05/03 07:12:35;;;;;;;2.47;2.08;;;;;;;9.40;68.78;101036.00;3565904;40;20060;-53
2021/05/03 07:15:02;;;;;;;4.43;2.22;;;;;;;9.32;69.97;101031.41;3564595;40;20132;-53
2021/05/03 07:17:29;;;;;;;3.25;1.85;;;;;;;8.83;68.71;101040.69;3565749;40;20072;-54
2021/05/03 07:20:00;;;;;;;5.47;2.45;;;;;;;8.92;68.34;101029.97;3565919;40;20055;-60
2021/05/03 07:22:27;;;;;;;3.08;2.13;;;;;;;9.28;67.66;101038.09;3563994;40;20064;-55
2021/05/03 07:24:54;;;;;;;3.60;1.58;;;;;;;9.78;66.52;101033.03;3563209;40;20048;-53
2021/05/03 07:27:20;;;;;;;2.63;1.73;;;;;;;9.40;66.92;101043.66;3563703;40;20484;-58
2021/05/03 07:29:47;;;;;;;3.13;1.55;;;;;;;9.11;66.19;101037.50;3560785;40;20069;-58
2021/05/03 07:32:13;;;;;;;2.80;1.52;;;;;;;9.26;67.53;101044.84;3565316;40;20053;-51
2021/05/03 07:34:42;;;;;;;4.35;1.88;;;;;;;9.41;66.77;101045.38;3565509;40;20065;-56
2021/05/03 07:37:08;;;;;;;4.15;2.05;;;;;;;9.28;68.74;101037.22;3560928;40;20057;-60
2021/05/03 07:39:35;;;;;;;3.45;1.88;;;;;;;9.35;68.05;101037.50;3564093;40;20100;-59
2021/05/03 07:42:03;;;;;;;5.03;1.88;;;;;;;9.30;66.38;101040.72;3564567;40;20059;-55
2021/05/03 07:44:50;;;;;;;2.55;1.55;;;;;;;9.73;67.96;101038.00;3564946;40;20061;-60
2021/05/03 07:47:17;;;;;;;4.75;1.98;;;;;;;9.41;67.93;101035.16;3564574;40;20064;-57
2021/05/03 07:49:44;;;;;;;3.58;1.77;;;;;;;9.78;65.93;101040.69;3563468;40;20062;-62
2021/05/03 07:52:11;;;;;;;1.67;1.58;;;;;;;9.79;66.58;101037.31;3562021;40;20085;-56
2021/05/03 07:54:39;;;;;;;2.83;1.80;;;;;;;9.72;65.84;101055.84;3563196;40;20049;-58
2021/05/03 07:57:09;;;;;;;3.88;2.03;;;;;;;9.34;64.38;101052.81;3561805;40;20373;-59
2021/05/03 07:59:39;;;;;;;4.40;1.77;;;;;;;9.42;65.14;101059.91;3562781;40;20061;-60
2021/05/03 08:02:06;;;;;;;4.07;2.33;;;;;;;9.73;66.05;101068.69;3564121;40;20049;-60
2021/05/03 08:04:34;;;;;;;7.70;2.10;;;;;;;9.43;65.71;101056.56;3564998;40;20045;-58
2021/05/03 08:07:01;;;;;;;4.47;1.80;;;;;;;9.40;66.32;101061.53;3565166;40;20146;-52
2021/05/03 08:09:28;;;;;;;4.20;1.98;;;;;;;9.54;66.54;101062.03;3560941;40;20048;-52
2021/05/03 08:12:04;;;;;;;2.20;1.70;;;;;;;10.49;65.22;101060.16;3564149;40;20322;-56
2021/05/03 08:15:09;;;;;;;2.60;1.60;;;;;;;10.23;65.63;101061.84;3561993;40;20345;-61
2021/05/03 08:17:48;;;;;;;2.33;1.85;;;;;;;9.70;64.42;101071.97;3562422;40;20414;-59
2021/05/03 08:20:32;;;;;;;5.05;1.80;;;;;;;9.55;63.79;101066.34;3559959;40;20078;-58
2021/05/03 08:23:08;;;;;;;3.88;1.60;;;;;;;9.33;65.67;101077.47;3561591;40;20057;-55
2021/05/03 08:25:36;;;;;;;2.80;1.75;;;;;;;9.88;65.10;101078.56;3559629;40;20049;-58
2021/05/03 08:28:05;;;;;;;3.80;1.83;;;;;;;10.27;63.87;101071.41;3564270;40;20059;-60
2021/05/03 08:30:32;;;;;;;1.30;1.02;;;;;;;10.02;60.60;101076.47;3566763;40;20068;-58
2021/05/03 08:32:58;;;;;;;3.42;1.60;;;;;;;9.59;63.01;101070.75;3562413;40;20339;-58
2021/05/03 08:35:25;;;;;;;2.95;1.80;;;;;;;10.70;61.53;101070.22;3563279;40;20046;-58
2021/05/03 08:37:52;;;;;;;2.28;1.40;;;;;;;10.47;59.60;101081.44;3563568;40;20422;-54
2021/05/03 08:40:20;;;;;;;3.38;2.20;;;;;;;10.71;58.49;101069.38;3562871;40;20042;-55
2021/05/03 08:42:46;;;;;;;3.15;1.13;;;;;;;10.34;58.87;101075.03;3562778;40;20049;-58
2021/05/03 08:45:14;;;;;;;3.03;1.48;;;;;;;10.48;58.68;101073.78;3562498;40;20415;-59
2021/05/03 08:47:53;;;;;;;3.28;2.08;;;;;;;10.48;60.03;101078.03;3564168;40;20061;-57
2021/05/03 08:50:27;;;;;;;4.80;2.47;;;;;;;10.61;60.18;101077.63;3560380;40;20493;-58
2021/05/03 08:52:57;;;;;;;3.88;1.85;;;;;;;10.60;57.79;101075.88;3565923;40;20061;-54
2021/05/03 08:55:24;;;;;;;2.92;1.45;;;;;;;10.14;59.09;101080.31;3563796;40;20449;-60
2021/05/03 08:57:51;;;;;;;3.30;1.25;;;;;;;10.37;59.63;101086.25;3564894;40;20474;-59
2021/05/03 09:00:18;;;;;;;2.97;1.30;;;;;;;10.36;59.94;101079.41;3561957;40;20053;-55
2021/05/03 09:02:46;;;;;;;2.60;1.40;;;;;;;10.56;58.85;101074.03;3564302;40;20049;-60
2021/05/03 09:05:14;;;;;;;2.97;1.67;;;;;;;11.19;60.13;101072.56;3567700;40;20042;-54
2021/05/03 09:08:07;;;;;;;3.30;1.50;;;;;;;11.59;59.29;101083.09;3562086;40;20422;-61
2021/05/03 09:10:45;;;;;;;4.95;1.33;;;;;;;11.40;55.62;101074.00;3562244;40;20127;-49
2021/05/03 09:13:13;;;;;;;2.58;1.60;;;;;;;11.87;56.52;101071.91;3560795;40;20073;-51
2021/05/03 09:15:44;;;;;;;3.47;1.10;;;;;;;11.27;53.59;101066.78;3563800;40;20405;-49
2021/05/03 09:18:15;;;;;;;3.80;1.60;;;;;;;10.84;55.60;101073.22;3558663;40;20105;-54
2021/05/03 09:20:48;;;;;;;1.75;0.95;;;;;;;10.68;57.00;101074.44;3562191;40;20042;-58
2021/05/03 09:23:23;;;;;;;4.03;1.20;;;;;;;11.17;56.41;101079.34;3562958;40;20057;-50
2021/05/03 09:25:52;;;;;;;;;;;;;;;11.85;54.72;101079.56;3565499;40;20053;-49
2021/05/03 09:28:25;;;;;;;2.15;1.15;;;;;;;11.42;52.80;101068.09;3563808;40;19952;-57
2021/05/03 09:31:01;;;;;;;3.42;1.17;;;;;;;10.71;54.56;101077.94;3562408;40;20060;-57
2021/05/03 09:33:31;;;;;;;2.65;1.02;;;;;;;10.50;54.19;101073.84;3562862;40;20085;-57
2021/05/03 09:36:09;;;;;;;2.35;1.05;;;;;;;10.68;56.42;101070.19;3563925;40;20072;-56
2021/05/03 09:38:45;;;;;;;1.95;0.90;;;;;;;10.88;53.18;101070.78;3561841;40;20069;-58
2021/05/03 09:41:28;;;;;;;2.70;0.95;;;;;;;11.29;51.53;101065.16;3562472;40;20058;-54
2021/05/03 09:44:04;;;;;;;3.45;1.05;;;;;;;12.26;50.68;101069.50;3561790;40;20193;-54
2021/05/03 09:46:46;;;;;;;1.30;0.90;;;;;;;12.36;49.81;101063.75;3559164;40;20218;-52
2021/05/03 09:49:18;;;;;;;2.65;0.90;;;;;;;12.04;48.51;101070.66;3562550;40;20053;-52
2021/05/03 09:51:53;;;;;;;3.88;1.02;;;;;;;13.05;46.62;101072.19;3565482;40;20386;-50
2021/05/03 09:54:30;;;;;;;2.40;0.93;;;;;;;15.88;41.22;101072.50;3563296;40;20922;-52
2021/05/03 09:57:06;;;;;;;2.15;0.70;;;;;;;16.37;40.20;101069.50;3565899;40;20424;-53
2021/05/03 09:59:33;;;;;;;;;;;;;;;16.56;40.63;101066.19;3563118;40;20339;-49
2021/05/03 10:02:00;;;;;;;1.70;1.00;;;;;;;16.92;40.92;101073.38;3562413;40;19941;-50
2021/05/03 10:04:28;;;;;;;1.45;1.00;;;;;;;15.26;40.73;101082.94;3563936;40;20053;-57
2021/05/03 10:06:55;;;;;;;1.55;0.90;;;;;;;13.84;42.52;101075.53;3561224;40;20113;-55
2021/05/03 10:09:23;;;;;;;0.93;0.70;;;;;;;13.20;45.87;101072.50;3559612;40;20057;-53
2021/05/03 10:11:49;;;;;;;2.70;0.82;;;;;;;12.93;44.35;101063.34;3562365;40;20330;-52
2021/05/03 10:14:16;;;;;;;1.65;0.70;;;;;;;12.69;46.39;101070.53;3562619;40;20327;-56
2021/05/03 10:16:44;;;;;;;3.10;1.08;;;;;;;14.15;45.29;101070.09;3564660;40;20065;-52
2021/05/03 10:19:12;;;;;;;1.55;0.93;;;;;;;17.46;37.47;101074.47;3561321;40;20046;-51
2021/05/03 10:21:43;;;;;;;2.72;1.00;;;;;;;19.97;34.80;101070.72;3564404;40;20049;-53
2021/05/03 10:24:12;;;;;;;0.63;0.60;;;;;;;21.55;31.77;101073.47;3563130;40;20037;-51
2021/05/03 10:26:51;;;;;;;1.75;0.70;;;;;;;19.77;30.22;101057.81;3562847;40;20431;-49
2021/05/03 10:29:28;;;;;;;2.05;0.93;;;;;;;20.35;30.75;101062.59;3564038;40;20057;-52
2021/05/03 10:32:01;;;;;;;3.03;0.70;;;;;;;17.69;33.09;101060.72;3565780;40;20140;-50
2021/05/03 10:34:45;;;;;;;1.90;1.27;;;;;;;15.34;39.39;101059.81;3567622;40;20049;-51
2021/05/03 10:37:33;;;;;;;1.00;0.88;;;;;;;14.19;41.33;101060.69;3564791;40;20077;-49
2021/05/03 10:40:18;;;;;;;2.42;1.00;;;;;;;15.89;39.50;101058.72;3565212;40;20045;-51
2021/05/03 10:43:08;;;;;;;2.25;0.88;;;;;;;17.86;36.53;101064.25;3563475;40;20085;-56
2021/05/03 10:46:50;;;;;;;2.72;1.20;;;;;;;19.34;34.65;101061.47;3563198;40;20061;-50
2021/05/03 10:48:32;;;;;;;2.05;0.98;;;;;;;17.90;34.02;101053.03;3560616;40;20060;-53
2021/05/03 10:51:00;;;;;;;2.97;0.98;;;;;;;17.49;34.03;101064.13;3563454;40;20342;-57
2021/05/03 10:53:36;;;;;;;1.50;0.98;;;;;;;16.78;36.97;101070.69;3562241;40;20061;-51
2021/05/03 10:56:05;;;;;;;1.95;1.00;;;;;;;17.95;34.69;101063.41;3564435;40;20139;-55
2021/05/03 10:58:52;;;;;;;2.03;0.60;;;;;;;20.19;31.96;101060.97;3565492;40;20335;-59
2021/05/03 11:01:19;;;;;;;1.25;0.88;;;;;;;19.05;33.72;101059.00;3563348;40;20057;-55
2021/05/03 11:03:55;;;;;;;2.03;0.80;;;;;;;22.77;26.95;101057.63;3561819;40;20064;-60
2021/05/03 11:06:37;;;;;;;3.38;0.90;;;;;;;19.05;31.24;101053.81;3560738;40;20314;-59
2021/05/03 11:09:29;;;;;;;1.73;0.75;;;;;;;21.06;28.99;101057.56;3561833;40;20050;-56
2021/05/03 11:12:00;;;;;;;1.10;1.00;;;;;;;21.02;29.59;101055.88;3565056;40;20049;-59
2021/05/03 11:14:30;;;;;;;0.82;0.63;;;;;;;20.61;28.57;101054.56;3562370;40;20049;-60
2021/05/03 11:17:03;;;;;;;1.83;0.95;;;;;;;18.73;31.95;101033.16;3563593;40;20057;-54
2021/05/03 11:22:24;;;;;;;2.35;1.65;;;;;;;16.86;35.67;101052.63;3562171;40;20053;-61
2021/05/03 11:25:00;;;;;;;2.08;0.80;;;;;;;18.25;35.39;101041.81;3561895;40;20513;-56
2021/05/03 11:28:07;;;;;;;2.47;1.10;;;;;;;20.23;31.00;101053.16;3563406;40;20105;-54
2021/05/03 11:30:41;;;;;;;1.67;1.08;;;;;;;19.33;33.75;101051.13;3563389;40;20105;-57
2021/05/03 11:33:23;;;;;;;1.63;0.90;;;;;;;20.83;31.77;101055.22;3560649;40;20040;-57
2021/05/03 11:36:05;;;;;;;2.50;0.80;;;;;;;;;;3562016;40;20356;-57
2021/05/03 11:39:02;;;;;;;1.40;0.70;;;;;;;21.97;29.26;101041.59;3561198;40;20145;-59
2021/05/03 11:41:48;;;;;;;1.85;0.80;;;;;;;19.63;31.34;101031.06;3602459;23;20050;-50
2021/05/03 11:44:29;;;;;;;1.98;0.90;;;;;;;17.77;33.00;101028.81;3560405;40;20061;-56
2021/05/03 11:47:04;;;;;;;2.25;0.88;;;;;;;17.45;32.96;101023.53;3561123;40;20049;-53
2021/05/03 11:49:43;;;;;;;1.45;0.70;;;;;;;20.01;31.02;101041.19;3562832;40;20038;-53
2021/05/03 11:52:11;;;;;;;1.17;0.82;;;;;;;21.32;29.89;101042.50;3564597;40;20073;-53
2021/05/03 11:54:43;;;;;;;1.02;0.70;;;;;;;20.18;28.88;101034.13;3562286;40;20057;-53
2021/05/03 11:57:19;;;;;;;1.23;0.75;;;;;;;22.49;26.38;101039.00;3566246;40;20415;-57
2021/05/03 11:59:57;;;;;;;1.08;0.52;;;;;;;23.13;27.51;101047.38;3571883;40;20033;-58
2021/05/03 12:02:26;;;;;;;4.75;1.05;;;;;;;20.37;29.61;101040.03;3564836;40;20053;-55